sensor_id;sensor_type;location;lat;lon;timestamp;P1;durP1;ratioP1;P2;durP2;ratioP2
61590;SDS011;57639;52.410;-1.966;2022-11-20T00:01:32;5.13;;;3.40;;
61590;SDS011;57639;52.410;-1.966;2022-11-20T00:04:39;5.88;;;3.65;;
61590;SDS011;57639;52.410;-1.966;2022-11-20T00:07:43;8.02;;;3.78;;
61590;SDS011;57639;52.410;-1.966;2022-11-20T00:10:49;6.53;;;3.80;;
61590;SDS011;57639;52.410;-1.966;2022-11-20T00:13:56;4.72;;;3.22;;
61590;SDS011;57639;52.410;-1.966;2022-11-20T00:17:09;5.95;;;3.40;;
61590;SDS011;57639;52.410;-1.966;2022-11-20T00:20:26;4.88;;;3.28;;
61590;SDS011;57639;52.410;-1.966;2022-11-20T00:23:32;5.57;;;3.55;;
61590;SDS011;57639;52.410;-1.966;2022-11-20T00:26:37;7.50;;;3.70;;
61590;SDS011;57639;52.410;-1.966;2022-11-20T00:29:46;5.40;;;3.33;;
61590;SDS011;57639;52.410;-1.966;2022-11-20T00:32:56;6.75;;;3.40;;
61590;SDS011;57639;52.410;-1.966;2022-11-20T00:36:02;4.32;;;2.90;;
61590;SDS011;57639;52.410;-1.966;2022-11-20T00:39:10;7.13;;;3.20;;
61590;SDS011;57639;52.410;-1.966;2022-11-20T00:42:16;5.93;;;3.20;;
61590;SDS011;57639;52.410;-1.966;2022-11-20T00:45:23;4.60;;;3.10;;
61590;SDS011;57639;52.410;-1.966;2022-11-20T00:48:29;5.22;;;2.78;;
61590;SDS011;57639;52.410;-1.966;2022-11-20T00:51:35;5.68;;;3.08;;
61590;SDS011;57639;52.410;-1.966;2022-11-20T00:54:41;6.13;;;3.17;;
61590;SDS011;57639;52.410;-1.966;2022-11-20T00:57:45;5.95;;;2.80;;
61590;SDS011;57639;52.410;-1.966;2022-11-20T01:00:54;5.55;;;3.25;;
61590;SDS011;57639;52.410;-1.966;2022-11-20T01:04:03;5.03;;;2.80;;
61590;SDS011;57639;52.410;-1.966;2022-11-20T01:07:09;5.97;;;2.88;;
61590;SDS011;57639;52.410;-1.966;2022-11-20T01:10:14;4.68;;;2.90;;
61590;SDS011;57639;52.410;-1.966;2022-11-20T01:13:20;4.60;;;2.80;;
61590;SDS011;57639;52.410;-1.966;2022-11-20T01:16:45;4.53;;;2.63;;
61590;SDS011;57639;52.410;-1.966;2022-11-20T01:19:55;4.78;;;2.70;;
61590;SDS011;57639;52.410;-1.966;2022-11-20T01:22:59;4.10;;;2.60;;
61590;SDS011;57639;52.410;-1.966;2022-11-20T01:26:06;3.67;;;2.50;;
61590;SDS011;57639;52.410;-1.966;2022-11-20T01:29:12;4.47;;;2.80;;
61590;SDS011;57639;52.410;-1.966;2022-11-20T01:32:23;4.13;;;2.63;;
61590;SDS011;57639;52.410;-1.966;2022-11-20T01:35:27;4.72;;;2.58;;
61590;SDS011;57639;52.410;-1.966;2022-11-20T01:38:33;4.28;;;2.50;;
61590;SDS011;57639;52.410;-1.966;2022-11-20T01:41:37;4.47;;;2.60;;
61590;SDS011;57639;52.410;-1.966;2022-11-20T01:44:59;4.75;;;2.78;;
61590;SDS011;57639;52.410;-1.966;2022-11-20T01:48:07;4.47;;;2.67;;
61590;SDS011;57639;52.410;-1.966;2022-11-20T01:51:16;3.90;;;2.67;;
61590;SDS011;57639;52.410;-1.966;2022-11-20T01:57:31;4.13;;;2.35;;
61590;SDS011;57639;52.410;-1.966;2022-11-20T02:00:38;5.05;;;2.33;;
61590;SDS011;57639;52.410;-1.966;2022-11-20T02:03:47;3.33;;;2.10;;
61590;SDS011;57639;52.410;-1.966;2022-11-20T02:06:53;4.00;;;2.30;;
61590;SDS011;57639;52.410;-1.966;2022-11-20T02:10:04;5.00;;;2.50;;
61590;SDS011;57639;52.410;-1.966;2022-11-20T02:13:08;4.40;;;2.20;;
61590;SDS011;57639;52.410;-1.966;2022-11-20T02:16:31;5.22;;;2.55;;
61590;SDS011;57639;52.410;-1.966;2022-11-20T02:19:42;3.35;;;2.15;;
61590;SDS011;57639;52.410;-1.966;2022-11-20T02:22:49;3.33;;;2.20;;
61590;SDS011;57639;52.410;-1.966;2022-11-20T02:26:02;3.08;;;1.98;;
61590;SDS011;57639;52.410;-1.966;2022-11-20T02:29:12;5.25;;;2.17;;
61590;SDS011;57639;52.410;-1.966;2022-11-20T02:32:19;4.10;;;2.35;;
61590;SDS011;57639;52.410;-1.966;2022-11-20T02:35:39;4.55;;;2.47;;
61590;SDS011;57639;52.410;-1.966;2022-11-20T02:38:45;3.80;;;2.00;;
61590;SDS011;57639;52.410;-1.966;2022-11-20T02:42:00;3.63;;;2.13;;
61590;SDS011;57639;52.410;-1.966;2022-11-20T02:48:11;3.92;;;2.20;;
61590;SDS011;57639;52.410;-1.966;2022-11-20T02:51:15;3.78;;;1.95;;
61590;SDS011;57639;52.410;-1.966;2022-11-20T02:54:21;2.67;;;1.80;;
61590;SDS011;57639;52.410;-1.966;2022-11-20T02:57:28;3.80;;;2.10;;
61590;SDS011;57639;52.410;-1.966;2022-11-20T03:00:34;4.32;;;2.13;;
61590;SDS011;57639;52.410;-1.966;2022-11-20T03:03:38;3.65;;;1.98;;
61590;SDS011;57639;52.410;-1.966;2022-11-20T03:06:47;3.73;;;1.90;;
61590;SDS011;57639;52.410;-1.966;2022-11-20T03:09:51;2.70;;;1.65;;
61590;SDS011;57639;52.410;-1.966;2022-11-20T03:13:00;3.75;;;2.15;;
61590;SDS011;57639;52.410;-1.966;2022-11-20T03:16:06;2.60;;;1.60;;
61590;SDS011;57639;52.410;-1.966;2022-11-20T03:19:15;4.18;;;1.90;;
61590;SDS011;57639;52.410;-1.966;2022-11-20T03:22:19;2.97;;;1.70;;
61590;SDS011;57639;52.410;-1.966;2022-11-20T03:25:25;2.88;;;1.65;;
61590;SDS011;57639;52.410;-1.966;2022-11-20T03:28:32;3.63;;;1.63;;
61590;SDS011;57639;52.410;-1.966;2022-11-20T03:31:39;2.90;;;1.58;;
61590;SDS011;57639;52.410;-1.966;2022-11-20T03:34:44;2.72;;;1.70;;
61590;SDS011;57639;52.410;-1.966;2022-11-20T03:37:50;2.97;;;1.67;;
61590;SDS011;57639;52.410;-1.966;2022-11-20T03:40:57;2.55;;;1.33;;
61590;SDS011;57639;52.410;-1.966;2022-11-20T03:44:07;2.70;;;1.40;;
61590;SDS011;57639;52.410;-1.966;2022-11-20T03:47:12;2.45;;;1.40;;
61590;SDS011;57639;52.410;-1.966;2022-11-20T03:50:19;2.40;;;1.40;;
61590;SDS011;57639;52.410;-1.966;2022-11-20T03:53:23;3.35;;;1.60;;
61590;SDS011;57639;52.410;-1.966;2022-11-20T03:56:29;3.00;;;1.38;;
61590;SDS011;57639;52.410;-1.966;2022-11-20T03:59:37;2.40;;;1.27;;
61590;SDS011;57639;52.410;-1.966;2022-11-20T04:02:43;2.13;;;1.40;;
61590;SDS011;57639;52.410;-1.966;2022-11-20T04:05:47;2.42;;;1.48;;
61590;SDS011;57639;52.410;-1.966;2022-11-20T04:08:53;2.17;;;1.50;;
61590;SDS011;57639;52.410;-1.966;2022-11-20T04:11:58;3.03;;;1.48;;
61590;SDS011;57639;52.410;-1.966;2022-11-20T04:15:07;3.83;;;1.40;;
61590;SDS011;57639;52.410;-1.966;2022-11-20T04:18:12;2.72;;;1.20;;
61590;SDS011;57639;52.410;-1.966;2022-11-20T04:21:18;2.72;;;1.52;;
61590;SDS011;57639;52.410;-1.966;2022-11-20T04:24:22;1.95;;;1.20;;
61590;SDS011;57639;52.410;-1.966;2022-11-20T04:27:28;2.55;;;1.30;;
61590;SDS011;57639;52.410;-1.966;2022-11-20T04:30:36;2.20;;;1.30;;
61590;SDS011;57639;52.410;-1.966;2022-11-20T04:33:42;2.80;;;1.50;;
61590;SDS011;57639;52.410;-1.966;2022-11-20T04:36:46;1.92;;;1.20;;
61590;SDS011;57639;52.410;-1.966;2022-11-20T04:39:52;2.20;;;1.23;;
61590;SDS011;57639;52.410;-1.966;2022-11-20T04:42:56;1.83;;;1.23;;
61590;SDS011;57639;52.410;-1.966;2022-11-20T04:46:05;2.33;;;1.23;;
61590;SDS011;57639;52.410;-1.966;2022-11-20T04:49:10;1.50;;;1.10;;
61590;SDS011;57639;52.410;-1.966;2022-11-20T04:52:19;2.08;;;1.13;;
61590;SDS011;57639;52.410;-1.966;2022-11-20T04:55:26;1.98;;;1.13;;
61590;SDS011;57639;52.410;-1.966;2022-11-20T04:58:33;2.10;;;1.10;;
61590;SDS011;57639;52.410;-1.966;2022-11-20T05:01:40;2.40;;;1.30;;
61590;SDS011;57639;52.410;-1.966;2022-11-20T05:04:46;1.50;;;1.10;;
61590;SDS011;57639;52.410;-1.966;2022-11-20T05:07:50;2.53;;;1.20;;
61590;SDS011;57639;52.410;-1.966;2022-11-20T05:10:59;1.92;;;1.10;;
61590;SDS011;57639;52.410;-1.966;2022-11-20T05:14:04;2.38;;;1.20;;
61590;SDS011;57639;52.410;-1.966;2022-11-20T05:17:13;1.88;;;1.08;;
61590;SDS011;57639;52.410;-1.966;2022-11-20T05:20:17;1.63;;;0.90;;
61590;SDS011;57639;52.410;-1.966;2022-11-20T05:23:24;1.95;;;1.02;;
61590;SDS011;57639;52.410;-1.966;2022-11-20T05:26:28;1.63;;;1.10;;
61590;SDS011;57639;52.410;-1.966;2022-11-20T05:29:34;1.80;;;1.00;;
61590;SDS011;57639;52.410;-1.966;2022-11-20T05:32:41;1.40;;;0.90;;
61590;SDS011;57639;52.410;-1.966;2022-11-20T05:35:50;1.70;;;1.10;;
61590;SDS011;57639;52.410;-1.966;2022-11-20T05:38:54;1.60;;;1.00;;
61590;SDS011;57639;52.410;-1.966;2022-11-20T05:42:21;1.30;;;0.93;;
61590;SDS011;57639;52.410;-1.966;2022-11-20T05:45:33;2.47;;;0.90;;
61590;SDS011;57639;52.410;-1.966;2022-11-20T05:48:43;1.55;;;1.00;;
61590;SDS011;57639;52.410;-1.966;2022-11-20T05:51:48;1.67;;;0.90;;
61590;SDS011;57639;52.410;-1.966;2022-11-20T05:54:54;1.63;;;0.90;;
61590;SDS011;57639;52.410;-1.966;2022-11-20T05:57:58;1.58;;;1.00;;
61590;SDS011;57639;52.410;-1.966;2022-11-20T06:01:05;2.47;;;1.00;;
61590;SDS011;57639;52.410;-1.966;2022-11-20T06:04:13;2.08;;;1.00;;
61590;SDS011;57639;52.410;-1.966;2022-11-20T06:07:19;1.15;;;0.90;;
61590;SDS011;57639;52.410;-1.966;2022-11-20T06:10:23;1.85;;;1.02;;
61590;SDS011;57639;52.410;-1.966;2022-11-20T06:13:29;1.02;;;0.77;;
61590;SDS011;57639;52.410;-1.966;2022-11-20T06:16:33;1.90;;;0.80;;
61590;SDS011;57639;52.410;-1.966;2022-11-20T06:19:42;1.77;;;1.05;;
61590;SDS011;57639;52.410;-1.966;2022-11-20T06:22:46;1.25;;;0.70;;
61590;SDS011;57639;52.410;-1.966;2022-11-20T06:25:52;1.45;;;0.90;;
61590;SDS011;57639;52.410;-1.966;2022-11-20T06:28:56;1.55;;;0.93;;
61590;SDS011;57639;52.410;-1.966;2022-11-20T06:32:02;1.63;;;1.02;;
61590;SDS011;57639;52.410;-1.966;2022-11-20T06:35:10;4.47;;;1.20;;
61590;SDS011;57639;52.410;-1.966;2022-11-20T06:38:16;1.53;;;0.90;;
61590;SDS011;57639;52.410;-1.966;2022-11-20T06:41:21;1.90;;;0.82;;
61590;SDS011;57639;52.410;-1.966;2022-11-20T06:44:27;1.30;;;0.75;;
61590;SDS011;57639;52.410;-1.966;2022-11-20T06:47:31;2.30;;;1.00;;
61590;SDS011;57639;52.410;-1.966;2022-11-20T06:50:40;1.52;;;0.90;;
61590;SDS011;57639;52.410;-1.966;2022-11-20T06:53:44;2.30;;;0.93;;
61590;SDS011;57639;52.410;-1.966;2022-11-20T06:56:50;1.83;;;0.85;;
61590;SDS011;57639;52.410;-1.966;2022-11-20T06:59:54;2.03;;;0.90;;
61590;SDS011;57639;52.410;-1.966;2022-11-20T07:03:02;2.60;;;0.80;;
61590;SDS011;57639;52.410;-1.966;2022-11-20T07:06:09;3.03;;;1.02;;
61590;SDS011;57639;52.410;-1.966;2022-11-20T07:09:16;1.52;;;0.70;;
61590;SDS011;57639;52.410;-1.966;2022-11-20T07:12:20;1.20;;;0.80;;
61590;SDS011;57639;52.410;-1.966;2022-11-20T07:15:26;1.98;;;0.95;;
61590;SDS011;57639;52.410;-1.966;2022-11-20T07:18:31;2.10;;;0.80;;
61590;SDS011;57639;52.410;-1.966;2022-11-20T07:21:40;1.08;;;0.60;;
61590;SDS011;57639;52.410;-1.966;2022-11-20T07:24:47;1.20;;;0.70;;
61590;SDS011;57639;52.410;-1.966;2022-11-20T07:27:56;0.93;;;0.70;;
61590;SDS011;57639;52.410;-1.966;2022-11-20T07:31:00;2.28;;;0.73;;
61590;SDS011;57639;52.410;-1.966;2022-11-20T07:34:07;3.28;;;1.00;;
61590;SDS011;57639;52.410;-1.966;2022-11-20T07:37:14;2.70;;;0.80;;
61590;SDS011;57639;52.410;-1.966;2022-11-20T07:40:20;1.35;;;0.63;;
61590;SDS011;57639;52.410;-1.966;2022-11-20T07:43:25;1.98;;;0.90;;
61590;SDS011;57639;52.410;-1.966;2022-11-20T07:46:33;2.90;;;0.80;;
61590;SDS011;57639;52.410;-1.966;2022-11-20T07:49:37;1.92;;;0.70;;
61590;SDS011;57639;52.410;-1.966;2022-11-20T07:52:46;2.35;;;0.80;;
61590;SDS011;57639;52.410;-1.966;2022-11-20T07:55:50;1.20;;;0.70;;
61590;SDS011;57639;52.410;-1.966;2022-11-20T07:59:00;1.88;;;0.95;;
61590;SDS011;57639;52.410;-1.966;2022-11-20T08:02:04;1.63;;;0.80;;
61590;SDS011;57639;52.410;-1.966;2022-11-20T08:05:10;2.50;;;0.93;;
61590;SDS011;57639;52.410;-1.966;2022-11-20T08:08:28;2.13;;;0.70;;
61590;SDS011;57639;52.410;-1.966;2022-11-20T08:11:40;2.05;;;0.85;;
61590;SDS011;57639;52.410;-1.966;2022-11-20T08:15:00;2.58;;;0.93;;
61590;SDS011;57639;52.410;-1.966;2022-11-20T08:18:23;3.40;;;0.70;;
61590;SDS011;57639;52.410;-1.966;2022-11-20T08:21:27;1.33;;;0.73;;
61590;SDS011;57639;52.410;-1.966;2022-11-20T08:24:39;2.72;;;1.17;;
61590;SDS011;57639;52.410;-1.966;2022-11-20T08:27:43;3.45;;;1.00;;
61590;SDS011;57639;52.410;-1.966;2022-11-20T08:30:49;2.67;;;0.82;;
61590;SDS011;57639;52.410;-1.966;2022-11-20T08:33:56;2.90;;;1.00;;
61590;SDS011;57639;52.410;-1.966;2022-11-20T08:37:02;3.13;;;1.00;;
61590;SDS011;57639;52.410;-1.966;2022-11-20T08:40:11;2.90;;;1.00;;
61590;SDS011;57639;52.410;-1.966;2022-11-20T08:43:17;2.47;;;0.70;;
61590;SDS011;57639;52.410;-1.966;2022-11-20T08:46:24;1.67;;;0.90;;
61590;SDS011;57639;52.410;-1.966;2022-11-20T08:49:31;3.15;;;0.85;;
61590;SDS011;57639;52.410;-1.966;2022-11-20T08:52:43;2.40;;;0.80;;
61590;SDS011;57639;52.410;-1.966;2022-11-20T08:55:52;2.95;;;1.00;;
61590;SDS011;57639;52.410;-1.966;2022-11-20T08:58:56;2.25;;;0.93;;
61590;SDS011;57639;52.410;-1.966;2022-11-20T09:02:03;2.42;;;0.88;;
61590;SDS011;57639;52.410;-1.966;2022-11-20T09:05:10;2.10;;;0.80;;
61590;SDS011;57639;52.410;-1.966;2022-11-20T09:08:16;3.17;;;1.08;;
61590;SDS011;57639;52.410;-1.966;2022-11-20T09:11:23;2.20;;;0.80;;
61590;SDS011;57639;52.410;-1.966;2022-11-20T09:14:29;3.47;;;0.85;;
61590;SDS011;57639;52.410;-1.966;2022-11-20T09:17:33;2.28;;;0.77;;
61590;SDS011;57639;52.410;-1.966;2022-11-20T09:20:40;2.53;;;0.65;;
61590;SDS011;57639;52.410;-1.966;2022-11-20T09:23:44;2.67;;;0.93;;
61590;SDS011;57639;52.410;-1.966;2022-11-20T09:26:53;3.00;;;0.93;;
61590;SDS011;57639;52.410;-1.966;2022-11-20T09:30:03;2.72;;;0.95;;
61590;SDS011;57639;52.410;-1.966;2022-11-20T09:33:12;3.00;;;1.00;;
61590;SDS011;57639;52.410;-1.966;2022-11-20T09:36:19;2.58;;;0.95;;
61590;SDS011;57639;52.410;-1.966;2022-11-20T09:39:26;4.40;;;1.10;;
61590;SDS011;57639;52.410;-1.966;2022-11-20T09:42:39;2.75;;;1.10;;
61590;SDS011;57639;52.410;-1.966;2022-11-20T09:45:56;2.50;;;0.85;;
61590;SDS011;57639;52.410;-1.966;2022-11-20T09:49:14;2.25;;;0.95;;
61590;SDS011;57639;52.410;-1.966;2022-11-20T09:52:35;2.15;;;0.82;;
61590;SDS011;57639;52.410;-1.966;2022-11-20T09:56:01;2.92;;;0.90;;
61590;SDS011;57639;52.410;-1.966;2022-11-20T09:59:19;3.00;;;0.90;;
61590;SDS011;57639;52.410;-1.966;2022-11-20T10:02:35;3.83;;;0.80;;
61590;SDS011;57639;52.410;-1.966;2022-11-20T10:05:54;3.28;;;1.00;;
61590;SDS011;57639;52.410;-1.966;2022-11-20T10:09:01;3.03;;;1.00;;
61590;SDS011;57639;52.410;-1.966;2022-11-20T10:12:21;3.67;;;1.00;;
61590;SDS011;57639;52.410;-1.966;2022-11-20T10:15:38;3.85;;;1.10;;
61590;SDS011;57639;52.410;-1.966;2022-11-20T10:18:57;2.38;;;0.95;;
61590;SDS011;57639;52.410;-1.966;2022-11-20T10:22:14;3.40;;;0.98;;
61590;SDS011;57639;52.410;-1.966;2022-11-20T10:25:34;2.95;;;0.90;;
61590;SDS011;57639;52.410;-1.966;2022-11-20T10:28:49;3.70;;;0.73;;
61590;SDS011;57639;52.410;-1.966;2022-11-20T10:32:13;3.28;;;1.02;;
61590;SDS011;57639;52.410;-1.966;2022-11-20T10:35:21;3.30;;;1.02;;
61590;SDS011;57639;52.410;-1.966;2022-11-20T10:38:34;2.22;;;0.70;;
61590;SDS011;57639;52.410;-1.966;2022-11-20T10:41:42;3.67;;;1.00;;
61590;SDS011;57639;52.410;-1.966;2022-11-20T10:44:51;4.07;;;1.13;;
61590;SDS011;57639;52.410;-1.966;2022-11-20T10:48:12;2.95;;;1.02;;
61590;SDS011;57639;52.410;-1.966;2022-11-20T10:51:27;3.25;;;1.00;;
61590;SDS011;57639;52.410;-1.966;2022-11-20T10:54:41;3.38;;;0.90;;
61590;SDS011;57639;52.410;-1.966;2022-11-20T10:57:54;3.40;;;1.00;;
61590;SDS011;57639;52.410;-1.966;2022-11-20T11:01:13;3.15;;;1.20;;
61590;SDS011;57639;52.410;-1.966;2022-11-20T11:04:30;2.65;;;0.88;;
61590;SDS011;57639;52.410;-1.966;2022-11-20T11:07:40;3.73;;;1.13;;
61590;SDS011;57639;52.410;-1.966;2022-11-20T11:10:50;3.67;;;1.00;;
61590;SDS011;57639;52.410;-1.966;2022-11-20T11:14:04;4.13;;;1.00;;
61590;SDS011;57639;52.410;-1.966;2022-11-20T11:17:21;3.53;;;1.05;;
61590;SDS011;57639;52.410;-1.966;2022-11-20T11:20:30;3.75;;;0.95;;
61590;SDS011;57639;52.410;-1.966;2022-11-20T11:23:37;2.93;;;0.90;;
61590;SDS011;57639;52.410;-1.966;2022-11-20T11:26:50;3.22;;;1.10;;
61590;SDS011;57639;52.410;-1.966;2022-11-20T11:30:02;4.20;;;1.13;;
61590;SDS011;57639;52.410;-1.966;2022-11-20T11:33:18;3.47;;;1.00;;
61590;SDS011;57639;52.410;-1.966;2022-11-20T11:36:29;2.35;;;0.90;;
61590;SDS011;57639;52.410;-1.966;2022-11-20T11:39:41;2.92;;;0.93;;
61590;SDS011;57639;52.410;-1.966;2022-11-20T11:42:52;4.05;;;1.10;;
61590;SDS011;57639;52.410;-1.966;2022-11-20T11:45:59;4.10;;;1.10;;
61590;SDS011;57639;52.410;-1.966;2022-11-20T11:49:13;3.65;;;1.20;;
61590;SDS011;57639;52.410;-1.966;2022-11-20T11:52:24;3.25;;;1.25;;
61590;SDS011;57639;52.410;-1.966;2022-11-20T11:55:35;3.03;;;1.00;;
61590;SDS011;57639;52.410;-1.966;2022-11-20T11:58:44;3.92;;;1.20;;
61590;SDS011;57639;52.410;-1.966;2022-11-20T12:02:05;4.43;;;0.93;;
61590;SDS011;57639;52.410;-1.966;2022-11-20T12:05:29;2.58;;;0.88;;
61590;SDS011;57639;52.410;-1.966;2022-11-20T12:08:46;2.70;;;0.98;;
61590;SDS011;57639;52.410;-1.966;2022-11-20T12:12:06;3.85;;;1.30;;
61590;SDS011;57639;52.410;-1.966;2022-11-20T12:15:33;2.78;;;0.90;;
61590;SDS011;57639;52.410;-1.966;2022-11-20T12:18:39;4.60;;;1.02;;
61590;SDS011;57639;52.410;-1.966;2022-11-20T12:21:50;4.18;;;1.33;;
61590;SDS011;57639;52.410;-1.966;2022-11-20T12:25:04;3.25;;;0.85;;
61590;SDS011;57639;52.410;-1.966;2022-11-20T12:28:19;3.80;;;1.20;;
61590;SDS011;57639;52.410;-1.966;2022-11-20T12:31:51;3.20;;;0.98;;
61590;SDS011;57639;52.410;-1.966;2022-11-20T12:35:06;3.72;;;1.02;;
61590;SDS011;57639;52.410;-1.966;2022-11-20T12:38:27;3.60;;;1.00;;
61590;SDS011;57639;52.410;-1.966;2022-11-20T12:42:27;2.55;;;0.90;;
61590;SDS011;57639;52.410;-1.966;2022-11-20T12:46:12;3.50;;;1.10;;
61590;SDS011;57639;52.410;-1.966;2022-11-20T12:49:29;4.13;;;1.05;;
61590;SDS011;57639;52.410;-1.966;2022-11-20T12:52:41;4.55;;;1.30;;
61590;SDS011;57639;52.410;-1.966;2022-11-20T12:55:55;4.47;;;1.05;;
61590;SDS011;57639;52.410;-1.966;2022-11-20T12:59:27;3.03;;;1.20;;
61590;SDS011;57639;52.410;-1.966;2022-11-20T13:02:58;2.92;;;1.17;;
61590;SDS011;57639;52.410;-1.966;2022-11-20T13:06:25;4.05;;;1.00;;
61590;SDS011;57639;52.410;-1.966;2022-11-20T13:09:32;4.03;;;1.15;;
61590;SDS011;57639;52.410;-1.966;2022-11-20T13:12:44;3.33;;;1.30;;
61590;SDS011;57639;52.410;-1.966;2022-11-20T13:15:57;2.00;;;0.82;;
61590;SDS011;57639;52.410;-1.966;2022-11-20T13:19:08;2.63;;;0.90;;
61590;SDS011;57639;52.410;-1.966;2022-11-20T13:22:23;4.20;;;1.00;;
61590;SDS011;57639;52.410;-1.966;2022-11-20T13:25:42;3.75;;;0.95;;
61590;SDS011;57639;52.410;-1.966;2022-11-20T13:28:59;3.17;;;1.00;;
61590;SDS011;57639;52.410;-1.966;2022-11-20T13:32:16;3.72;;;1.00;;
61590;SDS011;57639;52.410;-1.966;2022-11-20T13:35:35;4.72;;;1.25;;
61590;SDS011;57639;52.410;-1.966;2022-11-20T13:38:47;2.90;;;0.90;;
61590;SDS011;57639;52.410;-1.966;2022-11-20T13:41:55;3.75;;;1.00;;
61590;SDS011;57639;52.410;-1.966;2022-11-20T13:45:01;3.03;;;0.98;;
61590;SDS011;57639;52.410;-1.966;2022-11-20T13:48:26;4.93;;;1.40;;
61590;SDS011;57639;52.410;-1.966;2022-11-20T13:51:35;2.95;;;1.08;;
61590;SDS011;57639;52.410;-1.966;2022-11-20T13:54:51;3.25;;;0.98;;
61590;SDS011;57639;52.410;-1.966;2022-11-20T13:58:11;2.17;;;1.07;;
61590;SDS011;57639;52.410;-1.966;2022-11-20T14:01:34;3.83;;;1.20;;
61590;SDS011;57639;52.410;-1.966;2022-11-20T14:04:44;2.83;;;1.08;;
61590;SDS011;57639;52.410;-1.966;2022-11-20T14:07:53;2.80;;;1.00;;
61590;SDS011;57639;52.410;-1.966;2022-11-20T14:11:12;2.97;;;1.00;;
61590;SDS011;57639;52.410;-1.966;2022-11-20T14:14:24;4.10;;;1.20;;
61590;SDS011;57639;52.410;-1.966;2022-11-20T14:17:30;3.87;;;1.10;;
61590;SDS011;57639;52.410;-1.966;2022-11-20T14:21:05;5.80;;;1.42;;
61590;SDS011;57639;52.410;-1.966;2022-11-20T14:24:12;3.97;;;1.10;;
61590;SDS011;57639;52.410;-1.966;2022-11-20T14:27:21;4.70;;;1.13;;
61590;SDS011;57639;52.410;-1.966;2022-11-20T14:34:43;3.85;;;1.23;;
61590;SDS011;57639;52.410;-1.966;2022-11-20T14:37:56;4.43;;;1.02;;
61590;SDS011;57639;52.410;-1.966;2022-11-20T14:45:23;1.90;;;0.98;;
61590;SDS011;57639;52.410;-1.966;2022-11-20T14:48:33;3.38;;;1.10;;
61590;SDS011;57639;52.410;-1.966;2022-11-20T14:52:10;2.13;;;0.82;;
61590;SDS011;57639;52.410;-1.966;2022-11-20T14:55:30;3.25;;;0.85;;
61590;SDS011;57639;52.410;-1.966;2022-11-20T14:58:35;3.65;;;1.30;;
61590;SDS011;57639;52.410;-1.966;2022-11-20T15:01:42;2.20;;;0.90;;
61590;SDS011;57639;52.410;-1.966;2022-11-20T15:08:08;2.53;;;0.77;;
61590;SDS011;57639;52.410;-1.966;2022-11-20T15:11:23;3.28;;;1.02;;
61590;SDS011;57639;52.410;-1.966;2022-11-20T15:14:34;3.80;;;1.00;;
61590;SDS011;57639;52.410;-1.966;2022-11-20T15:17:40;2.00;;;0.90;;
61590;SDS011;57639;52.410;-1.966;2022-11-20T15:20:47;3.55;;;0.85;;
61590;SDS011;57639;52.410;-1.966;2022-11-20T15:23:51;1.73;;;0.63;;
61590;SDS011;57639;52.410;-1.966;2022-11-20T15:27:01;2.08;;;1.00;;
61590;SDS011;57639;52.410;-1.966;2022-11-20T15:30:08;2.70;;;0.88;;
61590;SDS011;57639;52.410;-1.966;2022-11-20T15:33:19;2.80;;;0.80;;
61590;SDS011;57639;52.410;-1.966;2022-11-20T15:36:23;2.35;;;0.80;;
61590;SDS011;57639;52.410;-1.966;2022-11-20T15:39:30;1.70;;;0.60;;
61590;SDS011;57639;52.410;-1.966;2022-11-20T15:42:37;2.03;;;0.80;;
61590;SDS011;57639;52.410;-1.966;2022-11-20T15:46:11;3.78;;;0.80;;
61590;SDS011;57639;52.410;-1.966;2022-11-20T15:49:18;1.48;;;0.50;;
61590;SDS011;57639;52.410;-1.966;2022-11-20T15:52:25;1.60;;;0.77;;
61590;SDS011;57639;52.410;-1.966;2022-11-20T15:55:30;2.05;;;0.75;;
61590;SDS011;57639;52.410;-1.966;2022-11-20T15:58:39;1.92;;;0.70;;
61590;SDS011;57639;52.410;-1.966;2022-11-20T16:01:43;1.30;;;0.60;;
61590;SDS011;57639;52.410;-1.966;2022-11-20T16:04:49;1.88;;;0.55;;
61590;SDS011;57639;52.410;-1.966;2022-11-20T16:07:54;1.63;;;0.70;;
61590;SDS011;57639;52.410;-1.966;2022-11-20T16:11:01;2.47;;;0.93;;
61590;SDS011;57639;52.410;-1.966;2022-11-20T16:14:08;1.83;;;0.70;;
61590;SDS011;57639;52.410;-1.966;2022-11-20T16:17:31;2.15;;;0.80;;
61590;SDS011;57639;52.410;-1.966;2022-11-20T16:20:47;1.50;;;0.80;;
61590;SDS011;57639;52.410;-1.966;2022-11-20T16:24:15;2.25;;;1.00;;
61590;SDS011;57639;52.410;-1.966;2022-11-20T16:27:21;1.85;;;1.00;;
61590;SDS011;57639;52.410;-1.966;2022-11-20T16:30:30;2.17;;;0.85;;
61590;SDS011;57639;52.410;-1.966;2022-11-20T16:33:35;2.65;;;0.98;;
61590;SDS011;57639;52.410;-1.966;2022-11-20T16:36:41;1.83;;;0.95;;
61590;SDS011;57639;52.410;-1.966;2022-11-20T16:39:48;2.03;;;0.85;;
61590;SDS011;57639;52.410;-1.966;2022-11-20T16:42:54;1.80;;;1.00;;
61590;SDS011;57639;52.410;-1.966;2022-11-20T16:46:01;2.75;;;1.10;;
61590;SDS011;57639;52.410;-1.966;2022-11-20T16:49:10;2.38;;;1.00;;
61590;SDS011;57639;52.410;-1.966;2022-11-20T16:52:15;1.90;;;0.90;;
61590;SDS011;57639;52.410;-1.966;2022-11-20T16:55:21;1.70;;;0.93;;
61590;SDS011;57639;52.410;-1.966;2022-11-20T16:58:26;12.38;;;1.02;;
61590;SDS011;57639;52.410;-1.966;2022-11-20T17:01:35;1.77;;;0.70;;
61590;SDS011;57639;52.410;-1.966;2022-11-20T17:04:43;1.73;;;0.75;;
61590;SDS011;57639;52.410;-1.966;2022-11-20T17:07:50;1.48;;;0.93;;
61590;SDS011;57639;52.410;-1.966;2022-11-20T17:11:03;3.10;;;0.95;;
61590;SDS011;57639;52.410;-1.966;2022-11-20T17:14:10;2.50;;;1.00;;
61590;SDS011;57639;52.410;-1.966;2022-11-20T17:17:16;2.53;;;0.93;;
61590;SDS011;57639;52.410;-1.966;2022-11-20T17:20:22;2.55;;;1.02;;
61590;SDS011;57639;52.410;-1.966;2022-11-20T17:23:26;2.03;;;0.90;;
61590;SDS011;57639;52.410;-1.966;2022-11-20T17:26:34;1.92;;;0.90;;
61590;SDS011;57639;52.410;-1.966;2022-11-20T17:29:43;2.20;;;1.00;;
61590;SDS011;57639;52.410;-1.966;2022-11-20T17:32:52;2.00;;;1.27;;
61590;SDS011;57639;52.410;-1.966;2022-11-20T17:35:56;2.35;;;0.80;;
61590;SDS011;57639;52.410;-1.966;2022-11-20T17:39:03;2.58;;;1.13;;
61590;SDS011;57639;52.410;-1.966;2022-11-20T17:42:09;2.35;;;1.00;;
61590;SDS011;57639;52.410;-1.966;2022-11-20T17:45:31;2.63;;;1.10;;
61590;SDS011;57639;52.410;-1.966;2022-11-20T17:48:41;2.33;;;1.15;;
61590;SDS011;57639;52.410;-1.966;2022-11-20T17:51:48;1.40;;;0.85;;
61590;SDS011;57639;52.410;-1.966;2022-11-20T17:54:52;1.75;;;0.95;;
61590;SDS011;57639;52.410;-1.966;2022-11-20T17:58:00;1.95;;;1.10;;
61590;SDS011;57639;52.410;-1.966;2022-11-20T18:01:05;2.28;;;1.20;;
61590;SDS011;57639;52.410;-1.966;2022-11-20T18:04:18;1.88;;;1.10;;
61590;SDS011;57639;52.410;-1.966;2022-11-20T18:07:31;2.72;;;1.17;;
61590;SDS011;57639;52.410;-1.966;2022-11-20T18:10:37;1.92;;;1.00;;
61590;SDS011;57639;52.410;-1.966;2022-11-20T18:13:43;2.08;;;1.20;;
61590;SDS011;57639;52.410;-1.966;2022-11-20T18:17:06;2.22;;;1.30;;
61590;SDS011;57639;52.410;-1.966;2022-11-20T18:20:17;2.42;;;1.13;;
61590;SDS011;57639;52.410;-1.966;2022-11-20T18:23:23;2.10;;;1.20;;
61590;SDS011;57639;52.410;-1.966;2022-11-20T18:26:27;2.58;;;1.20;;
61590;SDS011;57639;52.410;-1.966;2022-11-20T18:29:34;2.42;;;1.20;;
61590;SDS011;57639;52.410;-1.966;2022-11-20T18:32:38;3.88;;;1.55;;
61590;SDS011;57639;52.410;-1.966;2022-11-20T18:35:47;1.88;;;1.08;;
61590;SDS011;57639;52.410;-1.966;2022-11-20T18:38:52;2.30;;;1.15;;
61590;SDS011;57639;52.410;-1.966;2022-11-20T18:42:01;2.38;;;1.17;;
61590;SDS011;57639;52.410;-1.966;2022-11-20T18:45:26;2.03;;;1.10;;
61590;SDS011;57639;52.410;-1.966;2022-11-20T18:48:33;2.30;;;1.20;;
61590;SDS011;57639;52.410;-1.966;2022-11-20T18:51:40;2.25;;;1.10;;
61590;SDS011;57639;52.410;-1.966;2022-11-20T18:54:47;2.15;;;1.10;;
61590;SDS011;57639;52.410;-1.966;2022-11-20T18:57:54;2.03;;;1.25;;
61590;SDS011;57639;52.410;-1.966;2022-11-20T19:01:03;3.08;;;1.30;;
61590;SDS011;57639;52.410;-1.966;2022-11-20T19:04:08;3.85;;;1.60;;